sensor_id;sensor_type;location;lat;lon;timestamp;pressure;altitude;pressure_sealevel;temperature;humidity
75513;BME280;64090;49.770;18.760;2024-03-07T00:01:51;98045.27;;;1.65;100.00
75513;BME280;64090;49.770;18.760;2024-03-07T00:04:55;98051.80;;;1.66;100.00
75513;BME280;64090;49.770;18.760;2024-03-07T00:07:58;98051.44;;;1.66;100.00
75513;BME280;64090;49.770;18.760;2024-03-07T00:11:02;98051.48;;;1.66;100.00
75513;BME280;64090;49.770;18.760;2024-03-07T00:14:05;98048.67;;;1.66;100.00
75513;BME280;64090;49.770;18.760;2024-03-07T00:17:08;98049.15;;;1.66;100.00
75513;BME280;64090;49.770;18.760;2024-03-07T00:20:11;98054.67;;;1.69;100.00
75513;BME280;64090;49.770;18.760;2024-03-07T00:23:18;98053.58;;;1.69;100.00
75513;BME280;64090;49.770;18.760;2024-03-07T00:26:21;98050.81;;;1.71;100.00
75513;BME280;64090;49.770;18.760;2024-03-07T00:29:24;98051.08;;;1.70;100.00
75513;BME280;64090;49.770;18.760;2024-03-07T00:32:28;98051.90;;;1.70;100.00
75513;BME280;64090;49.770;18.760;2024-03-07T00:35:38;98049.05;;;1.71;100.00
75513;BME280;64090;49.770;18.760;2024-03-07T00:38:41;98046.36;;;1.72;100.00
75513;BME280;64090;49.770;18.760;2024-03-07T00:41:44;98049.18;;;1.73;100.00
75513;BME280;64090;49.770;18.760;2024-03-07T00:44:47;98048.83;;;1.76;100.00
75513;BME280;64090;49.770;18.760;2024-03-07T00:47:52;98053.36;;;1.76;100.00
75513;BME280;64090;49.770;18.760;2024-03-07T00:50:55;98051.96;;;1.73;100.00
75513;BME280;64090;49.770;18.760;2024-03-07T00:53:58;98046.48;;;1.72;100.00
75513;BME280;64090;49.770;18.760;2024-03-07T00:57:01;98045.35;;;1.71;100.00
75513;BME280;64090;49.770;18.760;2024-03-07T01:00:04;98045.30;;;1.72;100.00
75513;BME280;64090;49.770;18.760;2024-03-07T01:03:08;98043.45;;;1.71;100.00
75513;BME280;64090;49.770;18.760;2024-03-07T01:06:13;98040.66;;;1.73;100.00
75513;BME280;64090;49.770;18.760;2024-03-07T01:09:16;98040.29;;;1.71;100.00
75513;BME280;64090;49.770;18.760;2024-03-07T01:12:21;98038.30;;;1.72;100.00
75513;BME280;64090;49.770;18.760;2024-03-07T01:15:32;98034.77;;;1.72;100.00
75513;BME280;64090;49.770;18.760;2024-03-07T01:18:35;98036.61;;;1.73;100.00
75513;BME280;64090;49.770;18.760;2024-03-07T01:21:38;98035.37;;;1.72;100.00
75513;BME280;64090;49.770;18.760;2024-03-07T01:24:41;98033.71;;;1.71;100.00
75513;BME280;64090;49.770;18.760;2024-03-07T01:27:44;98035.06;;;1.69;100.00
75513;BME280;64090;49.770;18.760;2024-03-07T01:30:47;98034.02;;;1.71;100.00
75513;BME280;64090;49.770;18.760;2024-03-07T01:33:50;98032.01;;;1.68;100.00
75513;BME280;64090;49.770;18.760;2024-03-07T01:36:53;98028.63;;;1.67;100.00
75513;BME280;64090;49.770;18.760;2024-03-07T01:39:56;98035.67;;;1.70;100.00
75513;BME280;64090;49.770;18.760;2024-03-07T01:43:01;98031.66;;;1.70;100.00
75513;BME280;64090;49.770;18.760;2024-03-07T01:46:04;98028.36;;;1.72;100.00
75513;BME280;64090;49.770;18.760;2024-03-07T01:49:08;98030.14;;;1.70;100.00
75513;BME280;64090;49.770;18.760;2024-03-07T01:52:12;98029.67;;;1.67;100.00
75513;BME280;64090;49.770;18.760;2024-03-07T01:55:15;98029.33;;;1.69;100.00
75513;BME280;64090;49.770;18.760;2024-03-07T01:58:19;98028.66;;;1.68;100.00
75513;BME280;64090;49.770;18.760;2024-03-07T02:01:23;98028.20;;;1.68;100.00
75513;BME280;64090;49.770;18.760;2024-03-07T02:04:26;98028.34;;;1.66;100.00
75513;BME280;64090;49.770;18.760;2024-03-07T02:07:29;98029.64;;;1.69;100.00
75513;BME280;64090;49.770;18.760;2024-03-07T02:10:32;98023.02;;;1.71;100.00
75513;BME280;64090;49.770;18.760;2024-03-07T02:13:35;98025.39;;;1.70;99.97
75513;BME280;64090;49.770;18.760;2024-03-07T02:16:38;98024.58;;;1.71;100.00
75513;BME280;64090;49.770;18.760;2024-03-07T02:19:42;98020.67;;;1.72;99.96
75513;BME280;64090;49.770;18.760;2024-03-07T02:22:45;98021.95;;;1.75;99.96
75513;BME280;64090;49.770;18.760;2024-03-07T02:25:48;98014.34;;;1.76;100.00
75513;BME280;64090;49.770;18.760;2024-03-07T02:28:51;98020.90;;;1.79;99.93
75513;BME280;64090;49.770;18.760;2024-03-07T02:31:54;98016.98;;;1.82;99.90
75513;BME280;64090;49.770;18.760;2024-03-07T02:34:57;98016.83;;;1.81;99.91
75513;BME280;64090;49.770;18.760;2024-03-07T02:38:01;98011.04;;;1.80;99.88
75513;BME280;64090;49.770;18.760;2024-03-07T02:41:04;98010.05;;;1.79;99.90
75513;BME280;64090;49.770;18.760;2024-03-07T02:44:07;98005.26;;;1.76;99.70
75513;BME280;64090;49.770;18.760;2024-03-07T02:47:10;98003.97;;;1.75;99.85
75513;BME280;64090;49.770;18.760;2024-03-07T02:50:13;98003.67;;;1.70;100.00
75513;BME280;64090;49.770;18.760;2024-03-07T02:53:16;98005.36;;;1.67;99.90
75513;BME280;64090;49.770;18.760;2024-03-07T02:56:19;98006.99;;;1.69;100.00
75513;BME280;64090;49.770;18.760;2024-03-07T02:59:22;98009.95;;;1.65;100.00
75513;BME280;64090;49.770;18.760;2024-03-07T03:02:25;98007.58;;;1.64;100.00
75513;BME280;64090;49.770;18.760;2024-03-07T03:05:29;98010.50;;;1.65;100.00
75513;BME280;64090;49.770;18.760;2024-03-07T03:08:32;98008.71;;;1.65;100.00
75513;BME280;64090;49.770;18.760;2024-03-07T03:11:37;98008.52;;;1.67;100.00
75513;BME280;64090;49.770;18.760;2024-03-07T03:14:40;98008.07;;;1.68;100.00
75513;BME280;64090;49.770;18.760;2024-03-07T03:17:45;97998.79;;;1.65;100.00
75513;BME280;64090;49.770;18.760;2024-03-07T03:20:52;97995.45;;;1.63;100.00
75513;BME280;64090;49.770;18.760;2024-03-07T03:23:55;97993.45;;;1.62;100.00
75513;BME280;64090;49.770;18.760;2024-03-07T03:26:58;97995.05;;;1.60;100.00
75513;BME280;64090;49.770;18.760;2024-03-07T03:30:01;97993.59;;;1.57;100.00
75513;BME280;64090;49.770;18.760;2024-03-07T03:33:07;98002.39;;;1.54;100.00
75513;BME280;64090;49.770;18.760;2024-03-07T03:36:10;97997.53;;;1.50;100.00
75513;BME280;64090;49.770;18.760;2024-03-07T03:39:13;98004.45;;;1.51;100.00
75513;BME280;64090;49.770;18.760;2024-03-07T03:42:16;98003.16;;;1.48;100.00
75513;BME280;64090;49.770;18.760;2024-03-07T03:45:19;98002.50;;;1.43;100.00
75513;BME280;64090;49.770;18.760;2024-03-07T03:48:22;98005.17;;;1.43;100.00
75513;BME280;64090;49.770;18.760;2024-03-07T03:51:25;98011.21;;;1.42;100.00
75513;BME280;64090;49.770;18.760;2024-03-07T03:54:28;98008.07;;;1.40;100.00
75513;BME280;64090;49.770;18.760;2024-03-07T03:57:32;98011.61;;;1.38;100.00
75513;BME280;64090;49.770;18.760;2024-03-07T04:00:35;98013.08;;;1.35;100.00
75513;BME280;64090;49.770;18.760;2024-03-07T04:03:39;98011.61;;;1.36;100.00
75513;BME280;64090;49.770;18.760;2024-03-07T04:06:42;98016.16;;;1.34;100.00
75513;BME280;64090;49.770;18.760;2024-03-07T04:09:45;98014.70;;;1.30;100.00
75513;BME280;64090;49.770;18.760;2024-03-07T04:12:48;98011.38;;;1.27;100.00
75513;BME280;64090;49.770;18.760;2024-03-07T04:15:51;98013.60;;;1.25;100.00
75513;BME280;64090;49.770;18.760;2024-03-07T04:18:54;98015.34;;;1.27;100.00
75513;BME280;64090;49.770;18.760;2024-03-07T04:21:57;98014.25;;;1.24;100.00
75513;BME280;64090;49.770;18.760;2024-03-07T04:25:00;98009.59;;;1.23;100.00
75513;BME280;64090;49.770;18.760;2024-03-07T04:28:04;98007.27;;;1.20;100.00
75513;BME280;64090;49.770;18.760;2024-03-07T04:31:08;98005.44;;;1.19;100.00
75513;BME280;64090;49.770;18.760;2024-03-07T04:34:10;97999.70;;;1.19;100.00
75513;BME280;64090;49.770;18.760;2024-03-07T04:37:13;98002.41;;;1.18;100.00
75513;BME280;64090;49.770;18.760;2024-03-07T04:40:16;98007.23;;;1.15;100.00
75513;BME280;64090;49.770;18.760;2024-03-07T04:43:21;98002.32;;;1.13;100.00
75513;BME280;64090;49.770;18.760;2024-03-07T04:46:24;97999.73;;;1.11;100.00
75513;BME280;64090;49.770;18.760;2024-03-07T04:49:28;97995.27;;;1.10;100.00
75513;BME280;64090;49.770;18.760;2024-03-07T04:52:31;97996.95;;;1.11;100.00
75513;BME280;64090;49.770;18.760;2024-03-07T04:55:34;98001.31;;;1.11;100.00
75513;BME280;64090;49.770;18.760;2024-03-07T04:58:37;98000.13;;;1.11;100.00
75513;BME280;64090;49.770;18.760;2024-03-07T05:01:40;97999.40;;;1.08;100.00
75513;BME280;64090;49.770;18.760;2024-03-07T05:04:43;98002.83;;;1.12;100.00
75513;BME280;64090;49.770;18.760;2024-03-07T05:07:46;98001.58;;;1.10;100.00
75513;BME280;64090;49.770;18.760;2024-03-07T05:10:49;98007.64;;;1.12;100.00
75513;BME280;64090;49.770;18.760;2024-03-07T05:13:52;98008.26;;;1.11;100.00
75513;BME280;64090;49.770;18.760;2024-03-07T05:16:55;98006.68;;;1.09;100.00
75513;BME280;64090;49.770;18.760;2024-03-07T05:20:13;98007.91;;;1.09;100.00
75513;BME280;64090;49.770;18.760;2024-03-07T05:23:16;98020.77;;;1.08;100.00
75513;BME280;64090;49.770;18.760;2024-03-07T05:26:20;98013.13;;;1.07;100.00
75513;BME280;64090;49.770;18.760;2024-03-07T05:29:22;98014.95;;;1.07;100.00
75513;BME280;64090;49.770;18.760;2024-03-07T05:32:26;98013.77;;;1.06;100.00
75513;BME280;64090;49.770;18.760;2024-03-07T05:35:30;98024.51;;;1.07;100.00
75513;BME280;64090;49.770;18.760;2024-03-07T05:38:33;98026.41;;;1.09;100.00
75513;BME280;64090;49.770;18.760;2024-03-07T05:41:37;98032.09;;;1.12;100.00
75513;BME280;64090;49.770;18.760;2024-03-07T05:44:41;98029.33;;;1.12;100.00
75513;BME280;64090;49.770;18.760;2024-03-07T05:47:44;98036.83;;;1.16;100.00
75513;BME280;64090;49.770;18.760;2024-03-07T05:50:51;98035.08;;;1.18;100.00
75513;BME280;64090;49.770;18.760;2024-03-07T05:53:54;98034.50;;;1.16;100.00
75513;BME280;64090;49.770;18.760;2024-03-07T05:56:57;98040.38;;;1.17;100.00
75513;BME280;64090;49.770;18.760;2024-03-07T06:00:00;98039.38;;;1.20;100.00
75513;BME280;64090;49.770;18.760;2024-03-07T06:03:06;98049.02;;;1.20;100.00
75513;BME280;64090;49.770;18.760;2024-03-07T06:06:11;98053.77;;;1.21;100.00
75513;BME280;64090;49.770;18.760;2024-03-07T06:09:15;98055.14;;;1.23;99.99
75513;BME280;64090;49.770;18.760;2024-03-07T06:12:24;98056.27;;;1.22;99.47
75513;BME280;64090;49.770;18.760;2024-03-07T06:15:29;98058.45;;;1.14;99.55
75513;BME280;64090;49.770;18.760;2024-03-07T06:18:32;98063.74;;;1.13;99.58
75513;BME280;64090;49.770;18.760;2024-03-07T06:21:37;98061.71;;;1.08;99.32
75513;BME280;64090;49.770;18.760;2024-03-07T06:24:42;98067.38;;;1.07;99.22
75513;BME280;64090;49.770;18.760;2024-03-07T06:27:45;98067.75;;;1.07;99.53
75513;BME280;64090;49.770;18.760;2024-03-07T06:30:51;98072.91;;;1.12;99.03
75513;BME280;64090;49.770;18.760;2024-03-07T06:33:54;98073.60;;;1.12;98.96
75513;BME280;64090;49.770;18.760;2024-03-07T06:36:57;98071.80;;;1.15;99.06
75513;BME280;64090;49.770;18.760;2024-03-07T06:40:01;98079.64;;;1.17;98.79
75513;BME280;64090;49.770;18.760;2024-03-07T06:43:08;98080.84;;;1.19;98.84
75513;BME280;64090;49.770;18.760;2024-03-07T06:46:12;98079.40;;;1.23;98.55
75513;BME280;64090;49.770;18.760;2024-03-07T06:49:16;98082.71;;;1.22;98.60
75513;BME280;64090;49.770;18.760;2024-03-07T06:52:19;98087.12;;;1.23;98.54
75513;BME280;64090;49.770;18.760;2024-03-07T06:55:47;98085.29;;;1.20;98.46
75513;BME280;64090;49.770;18.760;2024-03-07T06:58:51;98095.24;;;1.18;98.80
75513;BME280;64090;49.770;18.760;2024-03-07T07:01:54;98093.43;;;1.21;98.42
75513;BME280;64090;49.770;18.760;2024-03-07T07:04:57;98095.88;;;1.21;98.08
75513;BME280;64090;49.770;18.760;2024-03-07T07:08:00;98096.81;;;1.12;98.45
75513;BME280;64090;49.770;18.760;2024-03-07T07:11:04;98097.12;;;1.13;98.65
75513;BME280;64090;49.770;18.760;2024-03-07T07:14:06;98097.95;;;1.13;99.03
75513;BME280;64090;49.770;18.760;2024-03-07T07:17:10;98099.98;;;1.14;98.91
75513;BME280;64090;49.770;18.760;2024-03-07T07:20:16;98102.88;;;1.11;98.71
75513;BME280;64090;49.770;18.760;2024-03-07T07:23:20;98095.42;;;1.08;98.50
75513;BME280;64090;49.770;18.760;2024-03-07T07:26:23;98098.68;;;1.05;98.59
75513;BME280;64090;49.770;18.760;2024-03-07T07:29:28;98096.48;;;1.04;98.42
75513;BME280;64090;49.770;18.760;2024-03-07T07:32:32;98104.85;;;1.06;98.54
75513;BME280;64090;49.770;18.760;2024-03-07T07:35:35;98097.73;;;1.04;97.78
75513;BME280;64090;49.770;18.760;2024-03-07T07:38:38;98109.45;;;0.99;97.89
75513;BME280;64090;49.770;18.760;2024-03-07T07:41:41;98110.33;;;0.98;97.43
75513;BME280;64090;49.770;18.760;2024-03-07T07:44:44;98109.39;;;0.94;97.50
75513;BME280;64090;49.770;18.760;2024-03-07T07:47:49;98106.48;;;0.96;97.38
75513;BME280;64090;49.770;18.760;2024-03-07T07:50:53;98108.74;;;0.94;97.26
75513;BME280;64090;49.770;18.760;2024-03-07T07:53:56;98119.88;;;0.94;96.77
75513;BME280;64090;49.770;18.760;2024-03-07T07:56:59;98105.33;;;0.91;96.38
75513;BME280;64090;49.770;18.760;2024-03-07T08:00:02;98112.88;;;0.91;96.40
75513;BME280;64090;49.770;18.760;2024-03-07T08:03:06;98112.96;;;0.92;96.54
75513;BME280;64090;49.770;18.760;2024-03-07T08:06:10;98105.80;;;0.91;96.40
75513;BME280;64090;49.770;18.760;2024-03-07T08:09:13;98110.86;;;0.92;96.26
75513;BME280;64090;49.770;18.760;2024-03-07T08:12:19;98110.50;;;0.92;96.33
75513;BME280;64090;49.770;18.760;2024-03-07T08:15:22;98110.29;;;0.92;96.65
75513;BME280;64090;49.770;18.760;2024-03-07T08:18:26;98112.66;;;0.93;96.56
75513;BME280;64090;49.770;18.760;2024-03-07T08:21:29;98113.45;;;0.90;96.74
75513;BME280;64090;49.770;18.760;2024-03-07T08:24:34;98123.21;;;0.84;97.16
75513;BME280;64090;49.770;18.760;2024-03-07T08:27:38;98124.64;;;0.79;97.34
75513;BME280;64090;49.770;18.760;2024-03-07T08:30:41;98128.64;;;0.76;97.22
75513;BME280;64090;49.770;18.760;2024-03-07T08:33:44;98131.20;;;0.66;97.48
75513;BME280;64090;49.770;18.760;2024-03-07T08:36:47;98130.38;;;0.65;97.61
75513;BME280;64090;49.770;18.760;2024-03-07T08:39:50;98128.02;;;0.73;97.65
75513;BME280;64090;49.770;18.760;2024-03-07T08:42:55;98126.58;;;0.73;97.93
75513;BME280;64090;49.770;18.760;2024-03-07T08:45:59;98127.48;;;0.77;97.92
75513;BME280;64090;49.770;18.760;2024-03-07T08:49:02;98133.30;;;0.80;97.73
75513;BME280;64090;49.770;18.760;2024-03-07T08:52:05;98129.15;;;0.80;98.03
75513;BME280;64090;49.770;18.760;2024-03-07T08:55:09;98133.00;;;0.86;97.97
75513;BME280;64090;49.770;18.760;2024-03-07T08:58:12;98141.48;;;0.86;97.68
75513;BME280;64090;49.770;18.760;2024-03-07T09:06:10;98140.02;;;0.87;97.73
75513;BME280;64090;49.770;18.760;2024-03-07T09:09:16;98139.96;;;0.86;97.59
75513;BME280;64090;49.770;18.760;2024-03-07T09:16:14;98147.23;;;0.76;97.85
75513;BME280;64090;49.770;18.760;2024-03-07T09:19:17;98145.91;;;0.69;97.77
75513;BME280;64090;49.770;18.760;2024-03-07T09:22:22;98150.04;;;0.66;97.95
75513;BME280;64090;49.770;18.760;2024-03-07T09:25:25;98150.02;;;0.64;98.36
75513;BME280;64090;49.770;18.760;2024-03-07T09:28:28;98157.17;;;0.58;98.67
75513;BME280;64090;49.770;18.760;2024-03-07T09:31:34;98154.19;;;0.62;98.62
75513;BME280;64090;49.770;18.760;2024-03-07T09:34:37;98159.25;;;0.56;98.75
75513;BME280;64090;49.770;18.760;2024-03-07T09:37:40;98159.77;;;0.54;99.02
75513;BME280;64090;49.770;18.760;2024-03-07T09:40:46;98166.53;;;0.57;98.94
75513;BME280;64090;49.770;18.760;2024-03-07T09:43:51;98164.72;;;0.58;98.89
75513;BME280;64090;49.770;18.760;2024-03-07T09:46:56;98168.87;;;0.50;99.69
75513;BME280;64090;49.770;18.760;2024-03-07T09:50:01;98170.23;;;0.54;99.44
75513;BME280;64090;49.770;18.760;2024-03-07T09:53:04;98168.20;;;0.56;99.24
75513;BME280;64090;49.770;18.760;2024-03-07T09:56:08;98163.96;;;0.58;99.52
75513;BME280;64090;49.770;18.760;2024-03-07T09:59:13;98162.25;;;0.66;99.25
75513;BME280;64090;49.770;18.760;2024-03-07T10:02:17;98159.70;;;0.73;98.90
75513;BME280;64090;49.770;18.760;2024-03-07T10:05:22;98163.05;;;0.79;98.91
75513;BME280;64090;49.770;18.760;2024-03-07T10:08:28;98171.23;;;0.81;98.87
75513;BME280;64090;49.770;18.760;2024-03-07T10:11:33;98165.36;;;0.86;98.61
75513;BME280;64090;49.770;18.760;2024-03-07T10:14:48;98165.77;;;0.86;98.20
75513;BME280;64090;49.770;18.760;2024-03-07T10:17:52;98165.48;;;0.85;98.16
75513;BME280;64090;49.770;18.760;2024-03-07T10:20:55;98160.35;;;0.84;97.83
75513;BME280;64090;49.770;18.760;2024-03-07T10:24:08;98155.38;;;0.81;98.40
75513;BME280;64090;49.770;18.760;2024-03-07T10:27:12;98160.08;;;0.81;98.50
75513;BME280;64090;49.770;18.760;2024-03-07T10:30:15;98164.02;;;0.86;98.25
75513;BME280;64090;49.770;18.760;2024-03-07T10:33:27;98163.39;;;0.91;98.17
75513;BME280;64090;49.770;18.760;2024-03-07T10:36:31;98161.90;;;0.97;97.81
75513;BME280;64090;49.770;18.760;2024-03-07T10:39:34;98173.63;;;0.96;97.71
75513;BME280;64090;49.770;18.760;2024-03-07T10:42:39;98175.64;;;0.95;97.36
75513;BME280;64090;49.770;18.760;2024-03-07T10:45:46;98178.61;;;0.89;96.84
75513;BME280;64090;49.770;18.760;2024-03-07T10:48:54;98181.66;;;0.84;97.19
75513;BME280;64090;49.770;18.760;2024-03-07T10:52:06;98177.14;;;0.80;97.36
75513;BME280;64090;49.770;18.760;2024-03-07T11:02:15;98180.23;;;0.74;97.57
75513;BME280;64090;49.770;18.760;2024-03-07T11:05:26;98187.58;;;0.74;97.58
75513;BME280;64090;49.770;18.760;2024-03-07T11:08:34;98181.72;;;0.75;97.42
75513;BME280;64090;49.770;18.760;2024-03-07T11:11:38;98181.36;;;0.75;97.22
75513;BME280;64090;49.770;18.760;2024-03-07T11:14:44;98181.64;;;0.76;97.04
75513;BME280;64090;49.770;18.760;2024-03-07T11:17:48;98182.60;;;0.75;96.91
75513;BME280;64090;49.770;18.760;2024-03-07T11:20:52;98184.73;;;0.76;97.20
75513;BME280;64090;49.770;18.760;2024-03-07T11:23:57;98177.39;;;0.83;96.58
75513;BME280;64090;49.770;18.760;2024-03-07T11:27:03;98178.00;;;0.84;96.06
75513;BME280;64090;49.770;18.760;2024-03-07T11:30:10;98172.52;;;0.89;96.40
75513;BME280;64090;49.770;18.760;2024-03-07T11:33:13;98175.61;;;0.97;96.10
75513;BME280;64090;49.770;18.760;2024-03-07T11:36:43;98173.40;;;0.97;95.84
75513;BME280;64090;49.770;18.760;2024-03-07T11:39:48;98171.36;;;0.94;95.44
75513;BME280;64090;49.770;18.760;2024-03-07T11:42:54;98177.17;;;0.91;95.73
75513;BME280;64090;49.770;18.760;2024-03-07T11:46:02;98177.04;;;0.83;95.10
75513;BME280;64090;49.770;18.760;2024-03-07T11:49:05;98170.65;;;0.78;95.57
75513;BME280;64090;49.770;18.760;2024-03-07T11:52:12;98166.43;;;0.86;95.45
75513;BME280;64090;49.770;18.760;2024-03-07T11:55:16;98163.41;;;0.97;95.35
75513;BME280;64090;49.770;18.760;2024-03-07T11:58:21;98158.14;;;1.06;94.82
75513;BME280;64090;49.770;18.760;2024-03-07T12:01:26;98163.16;;;1.10;95.05
75513;BME280;64090;49.770;18.760;2024-03-07T12:04:30;98167.86;;;1.16;94.83
75513;BME280;64090;49.770;18.760;2024-03-07T12:07:33;98171.46;;;1.09;94.43
75513;BME280;64090;49.770;18.760;2024-03-07T12:10:40;98164.98;;;0.95;94.82
75513;BME280;64090;49.770;18.760;2024-03-07T12:13:51;98166.02;;;0.87;94.95
75513;BME280;64090;49.770;18.760;2024-03-07T12:16:55;98164.08;;;0.90;95.01
75513;BME280;64090;49.770;18.760;2024-03-07T12:19:59;98160.39;;;0.92;94.96
75513;BME280;64090;49.770;18.760;2024-03-07T12:23:22;98154.44;;;0.96;95.13
75513;BME280;64090;49.770;18.760;2024-03-07T12:26:27;98162.58;;;0.98;95.13
75513;BME280;64090;49.770;18.760;2024-03-07T12:29:32;98157.90;;;0.96;95.14
75513;BME280;64090;49.770;18.760;2024-03-07T12:32:37;98161.26;;;0.84;95.30
75513;BME280;64090;49.770;18.760;2024-03-07T12:35:40;98168.38;;;0.80;95.40
75513;BME280;64090;49.770;18.760;2024-03-07T12:38:46;98163.95;;;0.77;95.09
75513;BME280;64090;49.770;18.760;2024-03-07T12:41:55;98165.00;;;0.75;95.04
75513;BME280;64090;49.770;18.760;2024-03-07T12:44:58;98168.09;;;0.67;95.09
75513;BME280;64090;49.770;18.760;2024-03-07T12:48:07;98165.08;;;0.72;94.98
75513;BME280;64090;49.770;18.760;2024-03-07T12:51:10;98168.89;;;0.84;94.67
75513;BME280;64090;49.770;18.760;2024-03-07T12:54:22;98167.95;;;0.91;94.39
75513;BME280;64090;49.770;18.760;2024-03-07T12:57:25;98167.27;;;0.95;93.92
75513;BME280;64090;49.770;18.760;2024-03-07T13:00:29;98165.67;;;0.91;94.16
75513;BME280;64090;49.770;18.760;2024-03-07T13:03:32;98164.23;;;0.94;94.32
75513;BME280;64090;49.770;18.760;2024-03-07T13:06:35;98163.83;;;0.98;94.36
75513;BME280;64090;49.770;18.760;2024-03-07T13:09:38;98159.48;;;0.96;94.23
75513;BME280;64090;49.770;18.760;2024-03-07T13:12:44;98159.25;;;0.85;94.57
75513;BME280;64090;49.770;18.760;2024-03-07T13:15:48;98160.98;;;0.83;94.89
75513;BME280;64090;49.770;18.760;2024-03-07T13:18:51;98155.88;;;0.91;94.77
75513;BME280;64090;49.770;18.760;2024-03-07T13:21:56;98161.09;;;0.92;94.10
75513;BME280;64090;49.770;18.760;2024-03-07T13:24:59;98162.09;;;0.88;94.58
75513;BME280;64090;49.770;18.760;2024-03-07T13:28:12;98164.64;;;0.91;94.46
75513;BME280;64090;49.770;18.760;2024-03-07T13:31:17;98168.83;;;0.91;93.95
75513;BME280;64090;49.770;18.760;2024-03-07T13:34:20;98166.90;;;0.91;94.11
75513;BME280;64090;49.770;18.760;2024-03-07T13:37:23;98164.63;;;0.89;94.38
75513;BME280;64090;49.770;18.760;2024-03-07T13:40:26;98164.93;;;0.88;94.16
75513;BME280;64090;49.770;18.760;2024-03-07T13:43:30;98170.30;;;0.84;94.47
75513;BME280;64090;49.770;18.760;2024-03-07T13:46:33;98168.64;;;0.85;94.51
75513;BME280;64090;49.770;18.760;2024-03-07T13:49:36;98171.74;;;0.81;94.13
75513;BME280;64090;49.770;18.760;2024-03-07T13:52:40;98173.91;;;0.71;94.21
75513;BME280;64090;49.770;18.760;2024-03-07T14:00:07;98173.95;;;0.60;94.55
75513;BME280;64090;49.770;18.760;2024-03-07T14:03:22;98171.78;;;0.65;94.33
75513;BME280;64090;49.770;18.760;2024-03-07T14:06:41;98171.16;;;0.72;94.36
75513;BME280;64090;49.770;18.760;2024-03-07T14:27:50;98160.50;;;0.82;94.56
75513;BME280;64090;49.770;18.760;2024-03-07T14:30:56;98153.84;;;0.85;93.94
75513;BME280;64090;49.770;18.760;2024-03-07T14:34:12;98148.73;;;0.87;94.26
75513;BME280;64090;49.770;18.760;2024-03-07T14:37:25;98147.77;;;0.90;93.68
75513;BME280;64090;49.770;18.760;2024-03-07T14:40:28;98145.13;;;0.86;93.78
75513;BME280;64090;49.770;18.760;2024-03-07T14:43:31;98147.01;;;0.93;93.53
75513;BME280;64090;49.770;18.760;2024-03-07T14:46:34;98135.65;;;0.97;93.36
75513;BME280;64090;49.770;18.760;2024-03-07T14:49:38;98145.52;;;1.06;92.92
75513;BME280;64090;49.770;18.760;2024-03-07T14:52:42;98140.64;;;1.14;92.58
75513;BME280;64090;49.770;18.760;2024-03-07T14:55:45;98140.75;;;1.15;92.45
75513;BME280;64090;49.770;18.760;2024-03-07T15:01:55;98142.64;;;1.11;92.81
75513;BME280;64090;49.770;18.760;2024-03-07T15:04:58;98139.94;;;1.04;92.60
75513;BME280;64090;49.770;18.760;2024-03-07T15:08:02;98146.06;;;1.02;93.13
75513;BME280;64090;49.770;18.760;2024-03-07T15:11:13;98145.08;;;1.05;92.96
75513;BME280;64090;49.770;18.760;2024-03-07T15:14:20;98142.43;;;1.05;92.63
75513;BME280;64090;49.770;18.760;2024-03-07T15:17:39;98141.52;;;1.02;92.97
75513;BME280;64090;49.770;18.760;2024-03-07T15:20:42;98139.70;;;0.99;93.01
75513;BME280;64090;49.770;18.760;2024-03-07T15:23:46;98144.36;;;0.95;93.43
75513;BME280;64090;49.770;18.760;2024-03-07T15:26:49;98145.46;;;0.91;93.45
75513;BME280;64090;49.770;18.760;2024-03-07T15:29:52;98153.91;;;0.88;93.50
75513;BME280;64090;49.770;18.760;2024-03-07T15:32:57;98149.85;;;0.84;93.93
75513;BME280;64090;49.770;18.760;2024-03-07T15:36:04;98158.41;;;0.82;93.94
75513;BME280;64090;49.770;18.760;2024-03-07T15:39:11;98156.25;;;0.79;93.89
75513;BME280;64090;49.770;18.760;2024-03-07T15:42:29;98157.72;;;0.74;94.21
75513;BME280;64090;49.770;18.760;2024-03-07T15:45:34;98156.91;;;0.71;94.53
75513;BME280;64090;49.770;18.760;2024-03-07T15:48:38;98157.52;;;0.64;95.06
75513;BME280;64090;49.770;18.760;2024-03-07T15:51:41;98155.77;;;0.64;95.12
75513;BME280;64090;49.770;18.760;2024-03-07T15:54:44;98155.67;;;0.68;95.01
75513;BME280;64090;49.770;18.760;2024-03-07T15:57:50;98156.80;;;0.67;95.17
75513;BME280;64090;49.770;18.760;2024-03-07T16:00:55;98156.34;;;0.66;95.05
75513;BME280;64090;49.770;18.760;2024-03-07T16:03:58;98160.92;;;0.67;95.11
75513;BME280;64090;49.770;18.760;2024-03-07T16:07:01;98160.95;;;0.69;95.03
75513;BME280;64090;49.770;18.760;2024-03-07T16:13:41;98166.19;;;0.69;95.38
75513;BME280;64090;49.770;18.760;2024-03-07T16:16:44;98165.48;;;0.73;94.94
75513;BME280;64090;49.770;18.760;2024-03-07T16:19:46;98167.33;;;0.72;95.03
75513;BME280;64090;49.770;18.760;2024-03-07T16:22:52;98174.30;;;0.74;94.74
75513;BME280;64090;49.770;18.760;2024-03-07T16:25:55;98171.80;;;0.75;95.06
75513;BME280;64090;49.770;18.760;2024-03-07T16:28:58;98176.65;;;0.75;94.88
75513;BME280;64090;49.770;18.760;2024-03-07T16:32:01;98171.20;;;0.78;94.86
75513;BME280;64090;49.770;18.760;2024-03-07T16:35:05;98175.64;;;0.79;94.86
75513;BME280;64090;49.770;18.760;2024-03-07T16:38:14;98170.06;;;0.78;94.76
75513;BME280;64090;49.770;18.760;2024-03-07T16:41:17;98172.39;;;0.80;94.65
75513;BME280;64090;49.770;18.760;2024-03-07T16:44:21;98175.95;;;0.79;94.53
75513;BME280;64090;49.770;18.760;2024-03-07T16:47:25;98180.84;;;0.81;94.32
75513;BME280;64090;49.770;18.760;2024-03-07T16:50:30;98178.90;;;0.83;94.35
75513;BME280;64090;49.770;18.760;2024-03-07T16:53:33;98185.46;;;0.84;94.43
75513;BME280;64090;49.770;18.760;2024-03-07T16:56:38;98185.69;;;0.86;94.07
75513;BME280;64090;49.770;18.760;2024-03-07T16:59:45;98187.79;;;0.88;94.06